sensor_id;sensor_type;location;lat;lon;timestamp;temperature;humidity
65826;DHT22;52586;-43.152;172.732;2022-10-31T00:02:19;25.50;44.10
65826;DHT22;52586;-43.152;172.732;2022-10-31T00:04:50;25.60;44.10
65826;DHT22;52586;-43.152;172.732;2022-10-31T00:07:21;25.60;44.00
65826;DHT22;52586;-43.152;172.732;2022-10-31T00:09:52;25.60;44.00
65826;DHT22;52586;-43.152;172.732;2022-10-31T00:12:22;25.60;44.00
65826;DHT22;52586;-43.152;172.732;2022-10-31T00:14:55;25.70;44.00
65826;DHT22;52586;-43.152;172.732;2022-10-31T00:17:26;25.70;44.00
65826;DHT22;52586;-43.152;172.732;2022-10-31T00:19:57;25.80;44.00
65826;DHT22;52586;-43.152;172.732;2022-10-31T00:22:27;25.80;44.10
65826;DHT22;52586;-43.152;172.732;2022-10-31T00:24:58;25.80;44.00
65826;DHT22;52586;-43.152;172.732;2022-10-31T00:27:29;25.90;44.00
65826;DHT22;52586;-43.152;172.732;2022-10-31T00:30:01;25.90;43.80
65826;DHT22;52586;-43.152;172.732;2022-10-31T00:32:32;25.90;43.70
65826;DHT22;52586;-43.152;172.732;2022-10-31T00:35:03;25.90;43.80
65826;DHT22;52586;-43.152;172.732;2022-10-31T00:37:34;25.90;43.80
65826;DHT22;52586;-43.152;172.732;2022-10-31T00:40:05;25.90;43.80
65826;DHT22;52586;-43.152;172.732;2022-10-31T00:42:36;26.00;43.70
65826;DHT22;52586;-43.152;172.732;2022-10-31T00:45:09;26.00;43.70
65826;DHT22;52586;-43.152;172.732;2022-10-31T00:47:40;26.00;43.70
65826;DHT22;52586;-43.152;172.732;2022-10-31T00:50:11;26.00;43.70
65826;DHT22;52586;-43.152;172.732;2022-10-31T00:52:42;26.00;43.70
65826;DHT22;52586;-43.152;172.732;2022-10-31T00:55:12;26.00;43.70
65826;DHT22;52586;-43.152;172.732;2022-10-31T00:57:43;26.00;43.60
65826;DHT22;52586;-43.152;172.732;2022-10-31T01:00:18;26.10;43.60
65826;DHT22;52586;-43.152;172.732;2022-10-31T01:02:49;26.10;43.50
65826;DHT22;52586;-43.152;172.732;2022-10-31T01:05:20;26.00;43.40
65826;DHT22;52586;-43.152;172.732;2022-10-31T01:07:51;26.00;43.30
65826;DHT22;52586;-43.152;172.732;2022-10-31T01:10:21;26.00;43.30
65826;DHT22;52586;-43.152;172.732;2022-10-31T01:12:52;26.00;43.20
65826;DHT22;52586;-43.152;172.732;2022-10-31T01:15:25;26.00;43.40
65826;DHT22;52586;-43.152;172.732;2022-10-31T01:17:55;26.10;43.50
65826;DHT22;52586;-43.152;172.732;2022-10-31T01:20:26;26.10;43.50
65826;DHT22;52586;-43.152;172.732;2022-10-31T01:22:58;26.00;43.50
65826;DHT22;52586;-43.152;172.732;2022-10-31T01:25:29;26.10;43.60
65826;DHT22;52586;-43.152;172.732;2022-10-31T01:27:59;26.10;43.60
65826;DHT22;52586;-43.152;172.732;2022-10-31T01:30:33;26.10;43.50
65826;DHT22;52586;-43.152;172.732;2022-10-31T01:33:03;26.10;43.50
65826;DHT22;52586;-43.152;172.732;2022-10-31T01:35:34;26.10;43.50
65826;DHT22;52586;-43.152;172.732;2022-10-31T01:38:05;26.00;43.30
65826;DHT22;52586;-43.152;172.732;2022-10-31T01:40:35;26.00;43.30
65826;DHT22;52586;-43.152;172.732;2022-10-31T01:43:07;26.00;43.30
65826;DHT22;52586;-43.152;172.732;2022-10-31T01:45:42;26.00;43.30
65826;DHT22;52586;-43.152;172.732;2022-10-31T01:48:16;26.00;43.40
65826;DHT22;52586;-43.152;172.732;2022-10-31T01:50:49;26.00;43.30
65826;DHT22;52586;-43.152;172.732;2022-10-31T01:53:21;26.00;43.40
65826;DHT22;52586;-43.152;172.732;2022-10-31T01:55:53;26.00;43.50
65826;DHT22;52586;-43.152;172.732;2022-10-31T01:58:25;26.00;43.50
65826;DHT22;52586;-43.152;172.732;2022-10-31T02:01:00;26.00;43.50
65826;DHT22;52586;-43.152;172.732;2022-10-31T02:03:32;26.00;43.50
65826;DHT22;52586;-43.152;172.732;2022-10-31T02:06:04;26.00;43.40
65826;DHT22;52586;-43.152;172.732;2022-10-31T02:08:38;26.00;43.50
65826;DHT22;52586;-43.152;172.732;2022-10-31T02:11:09;26.00;43.50
65826;DHT22;52586;-43.152;172.732;2022-10-31T02:13:40;26.00;43.40
65826;DHT22;52586;-43.152;172.732;2022-10-31T02:16:13;26.00;43.40
65826;DHT22;52586;-43.152;172.732;2022-10-31T02:18:44;26.00;43.40
65826;DHT22;52586;-43.152;172.732;2022-10-31T02:21:19;26.00;43.50
65826;DHT22;52586;-43.152;172.732;2022-10-31T02:24:33;26.00;43.50
65826;DHT22;52586;-43.152;172.732;2022-10-31T02:27:23;26.00;43.40
65826;DHT22;52586;-43.152;172.732;2022-10-31T02:30:07;26.00;43.50
65826;DHT22;52586;-43.152;172.732;2022-10-31T02:32:50;25.90;43.40
65826;DHT22;52586;-43.152;172.732;2022-10-31T02:35:31;25.90;43.50
65826;DHT22;52586;-43.152;172.732;2022-10-31T02:38:17;26.00;43.70
65826;DHT22;52586;-43.152;172.732;2022-10-31T02:40:59;25.90;43.50
65826;DHT22;52586;-43.152;172.732;2022-10-31T02:43:36;25.90;43.60
65826;DHT22;52586;-43.152;172.732;2022-10-31T02:46:14;26.00;43.70
65826;DHT22;52586;-43.152;172.732;2022-10-31T02:48:49;26.00;43.70
65826;DHT22;52586;-43.152;172.732;2022-10-31T02:51:21;25.90;43.60
65826;DHT22;52586;-43.152;172.732;2022-10-31T02:53:52;25.90;43.70
65826;DHT22;52586;-43.152;172.732;2022-10-31T02:56:22;25.90;43.70
65826;DHT22;52586;-43.152;172.732;2022-10-31T02:58:55;25.90;43.80
65826;DHT22;52586;-43.152;172.732;2022-10-31T03:01:50;25.90;43.70
65826;DHT22;52586;-43.152;172.732;2022-10-31T03:05:01;25.90;43.80
65826;DHT22;52586;-43.152;172.732;2022-10-31T03:07:42;25.90;43.80
65826;DHT22;52586;-43.152;172.732;2022-10-31T03:10:22;25.90;43.80
65826;DHT22;52586;-43.152;172.732;2022-10-31T03:13:04;25.90;43.80
65826;DHT22;52586;-43.152;172.732;2022-10-31T03:15:39;25.90;43.90
65826;DHT22;52586;-43.152;172.732;2022-10-31T03:18:16;25.90;43.90
65826;DHT22;52586;-43.152;172.732;2022-10-31T03:20:52;25.90;43.90
65826;DHT22;52586;-43.152;172.732;2022-10-31T03:23:25;25.90;44.00
65826;DHT22;52586;-43.152;172.732;2022-10-31T03:25:56;25.90;43.90
65826;DHT22;52586;-43.152;172.732;2022-10-31T03:28:30;25.90;43.90
65826;DHT22;52586;-43.152;172.732;2022-10-31T03:31:03;25.90;43.90
65826;DHT22;52586;-43.152;172.732;2022-10-31T03:33:36;25.90;43.90
65826;DHT22;52586;-43.152;172.732;2022-10-31T03:36:12;25.90;44.00
65826;DHT22;52586;-43.152;172.732;2022-10-31T03:38:45;25.90;44.00
65826;DHT22;52586;-43.152;172.732;2022-10-31T03:41:20;25.90;44.00
65826;DHT22;52586;-43.152;172.732;2022-10-31T03:43:55;25.90;44.00
65826;DHT22;52586;-43.152;172.732;2022-10-31T03:46:28;25.80;43.90
65826;DHT22;52586;-43.152;172.732;2022-10-31T03:48:59;25.80;43.90
65826;DHT22;52586;-43.152;172.732;2022-10-31T03:51:37;25.80;43.90
65826;DHT22;52586;-43.152;172.732;2022-10-31T03:54:14;25.90;44.00
65826;DHT22;52586;-43.152;172.732;2022-10-31T03:56:51;25.90;43.90
65826;DHT22;52586;-43.152;172.732;2022-10-31T03:59:26;25.90;43.90
65826;DHT22;52586;-43.152;172.732;2022-10-31T04:02:02;25.80;43.90
65826;DHT22;52586;-43.152;172.732;2022-10-31T04:04:34;25.80;43.90
65826;DHT22;52586;-43.152;172.732;2022-10-31T04:07:08;25.80;43.90
65826;DHT22;52586;-43.152;172.732;2022-10-31T04:09:42;25.80;43.90
65826;DHT22;52586;-43.152;172.732;2022-10-31T04:12:15;25.80;44.50
65826;DHT22;52586;-43.152;172.732;2022-10-31T04:14:47;25.80;43.90
65826;DHT22;52586;-43.152;172.732;2022-10-31T04:17:20;25.80;43.90
65826;DHT22;52586;-43.152;172.732;2022-10-31T04:19:51;25.70;43.80
65826;DHT22;52586;-43.152;172.732;2022-10-31T04:22:24;25.70;43.90
65826;DHT22;52586;-43.152;172.732;2022-10-31T04:24:55;25.70;43.90
65826;DHT22;52586;-43.152;172.732;2022-10-31T04:27:25;25.70;43.90
65826;DHT22;52586;-43.152;172.732;2022-10-31T04:29:56;25.70;43.80
65826;DHT22;52586;-43.152;172.732;2022-10-31T04:32:27;25.70;43.80
65826;DHT22;52586;-43.152;172.732;2022-10-31T04:34:57;25.70;43.90
65826;DHT22;52586;-43.152;172.732;2022-10-31T04:37:30;25.70;43.80
65826;DHT22;52586;-43.152;172.732;2022-10-31T04:40:01;25.60;43.80
65826;DHT22;52586;-43.152;172.732;2022-10-31T04:42:32;25.70;44.00
65826;DHT22;52586;-43.152;172.732;2022-10-31T04:45:02;25.60;43.90
65826;DHT22;52586;-43.152;172.732;2022-10-31T04:47:34;25.60;44.00
65826;DHT22;52586;-43.152;172.732;2022-10-31T04:50:05;25.60;44.00
65826;DHT22;52586;-43.152;172.732;2022-10-31T04:52:42;25.60;44.00
65826;DHT22;52586;-43.152;172.732;2022-10-31T04:55:14;25.50;44.00
65826;DHT22;52586;-43.152;172.732;2022-10-31T04:57:46;25.50;44.10
65826;DHT22;52586;-43.152;172.732;2022-10-31T05:00:19;25.50;44.10
65826;DHT22;52586;-43.152;172.732;2022-10-31T05:02:51;25.50;44.10
65826;DHT22;52586;-43.152;172.732;2022-10-31T05:05:23;25.50;44.10
65826;DHT22;52586;-43.152;172.732;2022-10-31T05:07:56;25.40;44.10
65826;DHT22;52586;-43.152;172.732;2022-10-31T05:10:28;25.40;44.10
65826;DHT22;52586;-43.152;172.732;2022-10-31T05:13:00;25.40;44.10
65826;DHT22;52586;-43.152;172.732;2022-10-31T05:15:31;25.40;44.10
65826;DHT22;52586;-43.152;172.732;2022-10-31T05:18:03;25.40;44.20
65826;DHT22;52586;-43.152;172.732;2022-10-31T05:20:34;25.40;44.30
65826;DHT22;52586;-43.152;172.732;2022-10-31T05:23:06;25.30;44.90
65826;DHT22;52586;-43.152;172.732;2022-10-31T05:25:39;25.30;44.30
65826;DHT22;52586;-43.152;172.732;2022-10-31T05:28:10;25.30;44.40
65826;DHT22;52586;-43.152;172.732;2022-10-31T05:30:41;25.20;44.40
65826;DHT22;52586;-43.152;172.732;2022-10-31T05:33:12;25.20;44.50
65826;DHT22;52586;-43.152;172.732;2022-10-31T05:35:42;25.20;44.50
65826;DHT22;52586;-43.152;172.732;2022-10-31T05:38:15;25.20;44.50
65826;DHT22;52586;-43.152;172.732;2022-10-31T05:40:46;25.20;44.60
65826;DHT22;52586;-43.152;172.732;2022-10-31T05:43:16;25.20;44.60
65826;DHT22;52586;-43.152;172.732;2022-10-31T05:45:47;25.10;44.60
65826;DHT22;52586;-43.152;172.732;2022-10-31T05:48:21;25.10;44.60
65826;DHT22;52586;-43.152;172.732;2022-10-31T05:50:52;25.10;44.70
65826;DHT22;52586;-43.152;172.732;2022-10-31T05:53:25;25.10;44.70
65826;DHT22;52586;-43.152;172.732;2022-10-31T05:55:55;25.10;44.80
65826;DHT22;52586;-43.152;172.732;2022-10-31T05:58:26;25.00;44.80
65826;DHT22;52586;-43.152;172.732;2022-10-31T06:00:57;25.00;44.90
65826;DHT22;52586;-43.152;172.732;2022-10-31T06:03:28;24.90;45.60
65826;DHT22;52586;-43.152;172.732;2022-10-31T06:05:58;24.90;45.10
65826;DHT22;52586;-43.152;172.732;2022-10-31T06:08:31;24.90;45.10
65826;DHT22;52586;-43.152;172.732;2022-10-31T06:11:01;24.90;45.20
65826;DHT22;52586;-43.152;172.732;2022-10-31T06:13:32;24.90;45.20
65826;DHT22;52586;-43.152;172.732;2022-10-31T06:16:03;24.90;45.30
65826;DHT22;52586;-43.152;172.732;2022-10-31T06:18:34;24.80;45.30
65826;DHT22;52586;-43.152;172.732;2022-10-31T06:21:05;24.80;45.30
65826;DHT22;52586;-43.152;172.732;2022-10-31T06:23:37;24.80;45.30
65826;DHT22;52586;-43.152;172.732;2022-10-31T06:26:08;24.80;45.40
65826;DHT22;52586;-43.152;172.732;2022-10-31T06:28:39;24.80;45.40
65826;DHT22;52586;-43.152;172.732;2022-10-31T06:31:09;24.70;45.40
65826;DHT22;52586;-43.152;172.732;2022-10-31T06:33:41;24.70;45.50
65826;DHT22;52586;-43.152;172.732;2022-10-31T06:36:12;24.70;45.50
65826;DHT22;52586;-43.152;172.732;2022-10-31T06:38:45;24.70;45.70
65826;DHT22;52586;-43.152;172.732;2022-10-31T06:41:16;24.60;45.60
65826;DHT22;52586;-43.152;172.732;2022-10-31T06:43:47;24.60;45.70
65826;DHT22;52586;-43.152;172.732;2022-10-31T06:46:18;24.50;45.70
65826;DHT22;52586;-43.152;172.732;2022-10-31T06:48:49;24.60;45.70
65826;DHT22;52586;-43.152;172.732;2022-10-31T06:51:19;24.50;45.70
65826;DHT22;52586;-43.152;172.732;2022-10-31T06:53:52;24.50;45.70
65826;DHT22;52586;-43.152;172.732;2022-10-31T06:56:23;24.50;45.70
65826;DHT22;52586;-43.152;172.732;2022-10-31T06:58:53;24.50;45.80
65826;DHT22;52586;-43.152;172.732;2022-10-31T07:01:24;24.50;45.80
65826;DHT22;52586;-43.152;172.732;2022-10-31T07:03:55;24.50;45.80
65826;DHT22;52586;-43.152;172.732;2022-10-31T07:06:26;24.40;45.80
65826;DHT22;52586;-43.152;172.732;2022-10-31T07:08:58;24.40;45.80
65826;DHT22;52586;-43.152;172.732;2022-10-31T07:11:29;24.40;45.80
65826;DHT22;52586;-43.152;172.732;2022-10-31T07:14:00;24.30;45.80
65826;DHT22;52586;-43.152;172.732;2022-10-31T07:16:30;24.30;45.90
65826;DHT22;52586;-43.152;172.732;2022-10-31T07:19:01;24.30;45.90
65826;DHT22;52586;-43.152;172.732;2022-10-31T07:21:32;24.30;46.00
65826;DHT22;52586;-43.152;172.732;2022-10-31T07:24:05;24.30;46.00
65826;DHT22;52586;-43.152;172.732;2022-10-31T07:26:35;24.20;46.00
65826;DHT22;52586;-43.152;172.732;2022-10-31T07:29:06;24.20;46.00
65826;DHT22;52586;-43.152;172.732;2022-10-31T07:31:37;24.20;46.00
65826;DHT22;52586;-43.152;172.732;2022-10-31T07:34:07;24.20;46.00
65826;DHT22;52586;-43.152;172.732;2022-10-31T07:36:38;24.20;46.00
65826;DHT22;52586;-43.152;172.732;2022-10-31T07:39:11;24.10;46.00
65826;DHT22;52586;-43.152;172.732;2022-10-31T07:41:41;24.10;46.00
65826;DHT22;52586;-43.152;172.732;2022-10-31T07:44:12;24.10;46.00
65826;DHT22;52586;-43.152;172.732;2022-10-31T07:46:43;24.00;46.10
65826;DHT22;52586;-43.152;172.732;2022-10-31T07:49:13;24.00;46.10
65826;DHT22;52586;-43.152;172.732;2022-10-31T07:51:44;24.00;46.20
65826;DHT22;52586;-43.152;172.732;2022-10-31T07:54:17;24.00;46.20
65826;DHT22;52586;-43.152;172.732;2022-10-31T07:56:47;23.90;46.20
65826;DHT22;52586;-43.152;172.732;2022-10-31T07:59:18;23.90;46.20
65826;DHT22;52586;-43.152;172.732;2022-10-31T08:01:49;23.90;46.20
65826;DHT22;52586;-43.152;172.732;2022-10-31T08:04:19;23.90;46.20
65826;DHT22;52586;-43.152;172.732;2022-10-31T08:06:50;23.90;46.30
65826;DHT22;52586;-43.152;172.732;2022-10-31T08:09:23;23.90;46.20
65826;DHT22;52586;-43.152;172.732;2022-10-31T08:11:54;23.80;46.20
65826;DHT22;52586;-43.152;172.732;2022-10-31T08:14:25;23.80;46.30
65826;DHT22;52586;-43.152;172.732;2022-10-31T08:16:55;23.80;46.30
65826;DHT22;52586;-43.152;172.732;2022-10-31T08:19:26;23.80;46.30
65826;DHT22;52586;-43.152;172.732;2022-10-31T08:21:57;23.80;46.40
65826;DHT22;52586;-43.152;172.732;2022-10-31T08:24:30;23.70;46.40
65826;DHT22;52586;-43.152;172.732;2022-10-31T08:27:00;23.70;46.40
65826;DHT22;52586;-43.152;172.732;2022-10-31T08:29:31;23.70;46.40
65826;DHT22;52586;-43.152;172.732;2022-10-31T08:32:02;23.70;46.50
65826;DHT22;52586;-43.152;172.732;2022-10-31T08:34:32;23.60;46.70
65826;DHT22;52586;-43.152;172.732;2022-10-31T08:37:03;23.40;47.00
65826;DHT22;52586;-43.152;172.732;2022-10-31T08:39:36;23.30;47.20
65826;DHT22;52586;-43.152;172.732;2022-10-31T08:42:06;23.10;47.30
65826;DHT22;52586;-43.152;172.732;2022-10-31T08:44:37;23.10;47.40
65826;DHT22;52586;-43.152;172.732;2022-10-31T08:47:08;23.00;47.40
65826;DHT22;52586;-43.152;172.732;2022-10-31T08:49:38;23.00;47.60
65826;DHT22;52586;-43.152;172.732;2022-10-31T08:52:09;23.00;47.90
65826;DHT22;52586;-43.152;172.732;2022-10-31T08:54:42;23.00;47.90
65826;DHT22;52586;-43.152;172.732;2022-10-31T08:57:12;23.00;47.90
65826;DHT22;52586;-43.152;172.732;2022-10-31T08:59:43;23.00;47.90
65826;DHT22;52586;-43.152;172.732;2022-10-31T09:02:14;22.90;47.90
65826;DHT22;52586;-43.152;172.732;2022-10-31T09:04:44;22.90;47.90
65826;DHT22;52586;-43.152;172.732;2022-10-31T09:07:15;22.90;47.90
65826;DHT22;52586;-43.152;172.732;2022-10-31T09:09:48;22.90;47.90
65826;DHT22;52586;-43.152;172.732;2022-10-31T09:12:18;22.90;47.90
65826;DHT22;52586;-43.152;172.732;2022-10-31T09:14:49;22.80;47.90
65826;DHT22;52586;-43.152;172.732;2022-10-31T09:17:20;22.80;47.80
65826;DHT22;52586;-43.152;172.732;2022-10-31T09:19:50;22.80;47.80
65826;DHT22;52586;-43.152;172.732;2022-10-31T09:22:21;22.80;47.80
65826;DHT22;52586;-43.152;172.732;2022-10-31T09:24:54;22.80;47.80
65826;DHT22;52586;-43.152;172.732;2022-10-31T09:27:24;22.80;47.80
65826;DHT22;52586;-43.152;172.732;2022-10-31T09:29:55;22.80;47.80
65826;DHT22;52586;-43.152;172.732;2022-10-31T09:32:26;22.80;47.80
65826;DHT22;52586;-43.152;172.732;2022-10-31T09:34:57;22.70;47.80
65826;DHT22;52586;-43.152;172.732;2022-10-31T09:37:27;22.70;47.80
65826;DHT22;52586;-43.152;172.732;2022-10-31T09:40:00;22.70;47.90
65826;DHT22;52586;-43.152;172.732;2022-10-31T09:42:48;22.70;47.90
65826;DHT22;52586;-43.152;172.732;2022-10-31T09:45:25;22.60;47.90
65826;DHT22;52586;-43.152;172.732;2022-10-31T09:48:08;22.60;47.80
65826;DHT22;52586;-43.152;172.732;2022-10-31T09:50:43;22.60;47.80
65826;DHT22;52586;-43.152;172.732;2022-10-31T09:53:22;22.60;47.80
65826;DHT22;52586;-43.152;172.732;2022-10-31T09:55:56;22.60;47.80
65826;DHT22;52586;-43.152;172.732;2022-10-31T09:58:29;22.60;47.80
65826;DHT22;52586;-43.152;172.732;2022-10-31T10:01:02;22.50;48.30
65826;DHT22;52586;-43.152;172.732;2022-10-31T10:03:34;22.50;47.70
65826;DHT22;52586;-43.152;172.732;2022-10-31T10:06:12;22.50;47.80
65826;DHT22;52586;-43.152;172.732;2022-10-31T10:08:44;22.50;47.80
65826;DHT22;52586;-43.152;172.732;2022-10-31T10:11:36;22.40;47.80
65826;DHT22;52586;-43.152;172.732;2022-10-31T10:14:24;22.40;47.80
65826;DHT22;52586;-43.152;172.732;2022-10-31T10:17:13;22.40;47.80
65826;DHT22;52586;-43.152;172.732;2022-10-31T10:20:12;22.40;47.80
65826;DHT22;52586;-43.152;172.732;2022-10-31T10:22:54;22.40;47.80
65826;DHT22;52586;-43.152;172.732;2022-10-31T10:25:37;22.40;47.80
65826;DHT22;52586;-43.152;172.732;2022-10-31T10:28:17;22.30;47.80
65826;DHT22;52586;-43.152;172.732;2022-10-31T10:30:53;22.30;47.80
65826;DHT22;52586;-43.152;172.732;2022-10-31T10:33:28;22.30;47.80
65826;DHT22;52586;-43.152;172.732;2022-10-31T10:36:01;22.30;47.80
65826;DHT22;52586;-43.152;172.732;2022-10-31T10:38:36;22.30;47.90
65826;DHT22;52586;-43.152;172.732;2022-10-31T10:41:14;22.20;47.80
65826;DHT22;52586;-43.152;172.732;2022-10-31T10:43:50;22.20;47.80
65826;DHT22;52586;-43.152;172.732;2022-10-31T10:46:26;22.20;47.80
65826;DHT22;52586;-43.152;172.732;2022-10-31T10:49:18;22.20;47.80
65826;DHT22;52586;-43.152;172.732;2022-10-31T10:51:52;22.20;47.70
65826;DHT22;52586;-43.152;172.732;2022-10-31T10:54:42;22.20;47.80
65826;DHT22;52586;-43.152;172.732;2022-10-31T10:57:22;22.20;47.80
65826;DHT22;52586;-43.152;172.732;2022-10-31T10:59:55;22.10;47.80
65826;DHT22;52586;-43.152;172.732;2022-10-31T11:02:27;22.10;47.80
65826;DHT22;52586;-43.152;172.732;2022-10-31T11:05:01;22.10;47.80
65826;DHT22;52586;-43.152;172.732;2022-10-31T11:07:39;22.10;47.80
65826;DHT22;52586;-43.152;172.732;2022-10-31T11:10:14;22.00;47.80
65826;DHT22;52586;-43.152;172.732;2022-10-31T11:12:56;22.00;47.80
65826;DHT22;52586;-43.152;172.732;2022-10-31T11:15:34;22.00;47.80
65826;DHT22;52586;-43.152;172.732;2022-10-31T11:18:05;22.00;47.80
65826;DHT22;52586;-43.152;172.732;2022-10-31T11:20:37;22.00;47.80
65826;DHT22;52586;-43.152;172.732;2022-10-31T11:23:18;21.90;47.80
65826;DHT22;52586;-43.152;172.732;2022-10-31T11:25:51;21.90;47.80
65826;DHT22;52586;-43.152;172.732;2022-10-31T11:28:23;21.90;47.70
65826;DHT22;52586;-43.152;172.732;2022-10-31T11:30:57;21.90;47.70
65826;DHT22;52586;-43.152;172.732;2022-10-31T11:33:31;21.90;47.70
65826;DHT22;52586;-43.152;172.732;2022-10-31T11:36:04;21.80;47.70
65826;DHT22;52586;-43.152;172.732;2022-10-31T11:38:44;21.80;47.80
65826;DHT22;52586;-43.152;172.732;2022-10-31T11:41:17;21.80;47.80
65826;DHT22;52586;-43.152;172.732;2022-10-31T11:43:50;21.80;47.80
65826;DHT22;52586;-43.152;172.732;2022-10-31T11:46:28;21.70;47.80
65826;DHT22;52586;-43.152;172.732;2022-10-31T11:49:01;21.70;47.80
65826;DHT22;52586;-43.152;172.732;2022-10-31T11:51:33;21.70;47.90
65826;DHT22;52586;-43.152;172.732;2022-10-31T11:54:05;21.70;47.90
65826;DHT22;52586;-43.152;172.732;2022-10-31T11:56:40;21.70;47.90
65826;DHT22;52586;-43.152;172.732;2022-10-31T11:59:21;21.60;47.80
65826;DHT22;52586;-43.152;172.732;2022-10-31T12:01:55;21.60;47.80
65826;DHT22;52586;-43.152;172.732;2022-10-31T12:04:34;21.60;47.70
65826;DHT22;52586;-43.152;172.732;2022-10-31T12:07:06;21.60;47.70
65826;DHT22;52586;-43.152;172.732;2022-10-31T12:09:37;21.60;47.70
65826;DHT22;52586;-43.152;172.732;2022-10-31T12:15:25;21.50;47.80
65826;DHT22;52586;-43.152;172.732;2022-10-31T12:21:08;21.50;47.80
65826;DHT22;52586;-43.152;172.732;2022-10-31T12:23:50;21.50;47.80
65826;DHT22;52586;-43.152;172.732;2022-10-31T12:26:29;21.40;47.80
65826;DHT22;52586;-43.152;172.732;2022-10-31T12:29:14;21.40;47.80
65826;DHT22;52586;-43.152;172.732;2022-10-31T12:31:56;21.40;47.80
65826;DHT22;52586;-43.152;172.732;2022-10-31T12:34:56;21.40;47.80
65826;DHT22;52586;-43.152;172.732;2022-10-31T12:37:40;21.40;47.80
65826;DHT22;52586;-43.152;172.732;2022-10-31T12:40:43;21.40;47.80
65826;DHT22;52586;-43.152;172.732;2022-10-31T12:43:30;21.30;47.70
65826;DHT22;52586;-43.152;172.732;2022-10-31T12:46:06;21.30;47.70
65826;DHT22;52586;-43.152;172.732;2022-10-31T12:48:54;21.30;47.70
65826;DHT22;52586;-43.152;172.732;2022-10-31T12:51:36;21.30;47.80
65826;DHT22;52586;-43.152;172.732;2022-10-31T12:54:19;21.20;47.70
65826;DHT22;52586;-43.152;172.732;2022-10-31T12:56:59;21.20;47.80
65826;DHT22;52586;-43.152;172.732;2022-10-31T12:59:34;21.20;47.80
65826;DHT22;52586;-43.152;172.732;2022-10-31T13:02:13;21.20;47.80
65826;DHT22;52586;-43.152;172.732;2022-10-31T13:04:49;21.20;47.80
65826;DHT22;52586;-43.152;172.732;2022-10-31T13:07:30;21.20;47.70
65826;DHT22;52586;-43.152;172.732;2022-10-31T13:10:05;21.10;47.60
65826;DHT22;52586;-43.152;172.732;2022-10-31T13:12:40;21.10;47.60
65826;DHT22;52586;-43.152;172.732;2022-10-31T13:15:16;21.10;47.60
65826;DHT22;52586;-43.152;172.732;2022-10-31T13:17:50;21.10;47.60
65826;DHT22;52586;-43.152;172.732;2022-10-31T13:20:26;21.10;47.60
65826;DHT22;52586;-43.152;172.732;2022-10-31T13:23:07;21.10;47.60
65826;DHT22;52586;-43.152;172.732;2022-10-31T13:25:42;21.10;47.60
65826;DHT22;52586;-43.152;172.732;2022-10-31T13:28:23;21.00;47.60
65826;DHT22;52586;-43.152;172.732;2022-10-31T13:30:55;21.00;47.60
65826;DHT22;52586;-43.152;172.732;2022-10-31T13:33:27;21.00;47.70
65826;DHT22;52586;-43.152;172.732;2022-10-31T13:36:10;21.00;47.60
65826;DHT22;52586;-43.152;172.732;2022-10-31T13:38:50;21.00;47.60
65826;DHT22;52586;-43.152;172.732;2022-10-31T13:41:40;21.00;47.60
65826;DHT22;52586;-43.152;172.732;2022-10-31T13:44:17;20.90;47.50
65826;DHT22;52586;-43.152;172.732;2022-10-31T13:46:49;20.90;48.10
65826;DHT22;52586;-43.152;172.732;2022-10-31T13:49:38;20.90;47.50
65826;DHT22;52586;-43.152;172.732;2022-10-31T13:52:23;20.90;47.60
65826;DHT22;52586;-43.152;172.732;2022-10-31T13:54:56;20.90;47.50
65826;DHT22;52586;-43.152;172.732;2022-10-31T13:57:31;20.80;47.50
65826;DHT22;52586;-43.152;172.732;2022-10-31T14:00:06;20.80;47.50
65826;DHT22;52586;-43.152;172.732;2022-10-31T14:02:48;20.80;47.60
65826;DHT22;52586;-43.152;172.732;2022-10-31T14:05:24;20.80;47.50
65826;DHT22;52586;-43.152;172.732;2022-10-31T14:07:56;20.80;47.50
65826;DHT22;52586;-43.152;172.732;2022-10-31T14:10:30;20.80;47.50
65826;DHT22;52586;-43.152;172.732;2022-10-31T14:13:07;20.80;47.50
65826;DHT22;52586;-43.152;172.732;2022-10-31T14:15:39;20.70;47.40
65826;DHT22;52586;-43.152;172.732;2022-10-31T14:18:25;20.70;47.40
65826;DHT22;52586;-43.152;172.732;2022-10-31T14:20:59;20.70;47.50
65826;DHT22;52586;-43.152;172.732;2022-10-31T14:23:39;20.70;47.40
65826;DHT22;52586;-43.152;172.732;2022-10-31T14:26:32;20.70;47.40
65826;DHT22;52586;-43.152;172.732;2022-10-31T14:29:23;20.60;47.40
65826;DHT22;52586;-43.152;172.732;2022-10-31T14:31:56;20.60;47.40
65826;DHT22;52586;-43.152;172.732;2022-10-31T14:34:29;20.60;47.40
65826;DHT22;52586;-43.152;172.732;2022-10-31T14:37:12;20.60;47.40
65826;DHT22;52586;-43.152;172.732;2022-10-31T14:39:55;20.60;47.40
65826;DHT22;52586;-43.152;172.732;2022-10-31T14:42:45;20.60;47.40
65826;DHT22;52586;-43.152;172.732;2022-10-31T14:45:31;20.60;47.30
65826;DHT22;52586;-43.152;172.732;2022-10-31T14:48:23;20.50;47.30
65826;DHT22;52586;-43.152;172.732;2022-10-31T14:50:56;20.50;47.30
65826;DHT22;52586;-43.152;172.732;2022-10-31T14:53:29;20.50;47.30
65826;DHT22;52586;-43.152;172.732;2022-10-31T14:56:00;20.50;47.30
65826;DHT22;52586;-43.152;172.732;2022-10-31T14:58:36;20.50;47.40
65826;DHT22;52586;-43.152;172.732;2022-10-31T15:01:15;20.40;47.40
65826;DHT22;52586;-43.152;172.732;2022-10-31T15:03:48;20.40;47.40
65826;DHT22;52586;-43.152;172.732;2022-10-31T15:06:21;20.40;47.40
65826;DHT22;52586;-43.152;172.732;2022-10-31T15:08:53;20.40;47.40
65826;DHT22;52586;-43.152;172.732;2022-10-31T15:11:26;20.40;47.40
65826;DHT22;52586;-43.152;172.732;2022-10-31T15:13:59;20.30;47.30
65826;DHT22;52586;-43.152;172.732;2022-10-31T15:16:33;20.30;47.30
65826;DHT22;52586;-43.152;172.732;2022-10-31T15:19:05;20.30;47.30
65826;DHT22;52586;-43.152;172.732;2022-10-31T15:21:42;20.30;47.30
65826;DHT22;52586;-43.152;172.732;2022-10-31T15:24:14;20.30;47.30
65826;DHT22;52586;-43.152;172.732;2022-10-31T15:26:47;20.20;47.30
65826;DHT22;52586;-43.152;172.732;2022-10-31T15:29:23;20.20;47.30
65826;DHT22;52586;-43.152;172.732;2022-10-31T15:31:54;20.20;47.30
65826;DHT22;52586;-43.152;172.732;2022-10-31T15:34:29;20.20;47.30
65826;DHT22;52586;-43.152;172.732;2022-10-31T15:37:02;20.20;47.30
65826;DHT22;52586;-43.152;172.732;2022-10-31T15:39:33;20.20;47.30